• Join FlightAware (Why Join?)
  • Login
  • US Flag 
02:19AM EDT


 

Airport Tracker/Info


-or-


 

Live Flight TrackerFlight Track Log ✈ AUB1737 ✈ 29-Jun-2013 ✈ LATI / TIA - EDDM / MUC

Flight Track Log - Related Links

Times and Time Zones

All times are in EDT time to prevent confusion due to time zone crossing. See the AUB1737 flight status page for this flight to view local times or setup timezone preferences in your user account.

Time Position Orientation Groundspeed Altitude Reporting Facility
EDT Latitude Longitude Course Direction KTS MPH feet Rate Location/Type
06:14AM 41.9274 19.2139 324° Northwest  Level Estimated
06:15AM 42.0126 19.1287 323° Northwest  Level Estimated
06:16AM 42.0977 19.0432 323° Northwest  Level Estimated
06:17AM 42.1828 18.9576 323° Northwest  Level Estimated
06:18AM 42.2678 18.8716 323° Northwest  Level Estimated
06:19AM 42.3528 18.7855 323° Northwest  Level Estimated
06:20AM 42.4377 18.6991 323° Northwest  Level Estimated
06:21AM 42.5225 18.6125 323° Northwest  Level Estimated
06:22AM 42.6073 18.5256 323° Northwest  Level Estimated
06:23AM 42.6920 18.4385 323° Northwest  Level Estimated
06:24AM 42.7766 18.3512 323° Northwest  Level Estimated
06:25AM 42.8612 18.2636 323° Northwest  Level Estimated
06:26AM 42.9457 18.1758 323° Northwest  Level Estimated
06:27AM 43.0302 18.0878 323° Northwest  Level Estimated
06:28AM 43.1145 17.9995 323° Northwest  Level Estimated
06:29AM 43.1988 17.9110 323° Northwest  Level Estimated
06:30AM 43.2831 17.8222 323° Northwest  Level Estimated
06:31AM 43.3672 17.7332 322° Northwest  Level Estimated
06:32AM 43.4513 17.6439 322° Northwest  Level Estimated
06:33AM 43.5353 17.5544 322° Northwest  Level Estimated
06:34AM 43.6193 17.4646 322° Northwest  Level Estimated
06:35AM 43.7032 17.3746 322° Northwest  Level Estimated
06:36AM 43.7870 17.2843 322° Northwest  Level Estimated
06:37AM 43.8707 17.1938 322° Northwest  Level Estimated
06:38AM 43.9544 17.1030 322° Northwest  Level Estimated
06:39AM 44.0380 17.0120 322° Northwest  Level Estimated
06:40AM 44.1215 16.9207 322° Northwest  Level Estimated
06:41AM 44.2049 16.8291 322° Northwest  Level Estimated
06:42AM 44.2883 16.7373 322° Northwest  Level Estimated
06:43AM 44.3716 16.6452 322° Northwest  Level Estimated
06:44AM 44.4549 16.5529 322° Northwest  Level Estimated
06:45AM 44.5380 16.4603 322° Northwest  Level Estimated
06:46AM 44.6211 16.3675 322° Northwest  Level Estimated
06:47AM 44.7041 16.2743 321° Northwest  Level Estimated
06:48AM 44.7870 16.1809 321° Northwest  Level Estimated
06:49AM 44.8699 16.0873 321° Northwest  Level Estimated
06:50AM 44.9527 15.9933 321° Northwest  Level Estimated
06:51AM 45.0354 15.8991 321° Northwest  Level Estimated
06:52AM 45.1180 15.8046 321° Northwest  Level Estimated
06:53AM 45.2005 15.7099 321° Northwest  Level Estimated
06:54AM 45.2830 15.6149 321° Northwest  Level Estimated
06:55AM 45.3654 15.5196 321° Northwest  Level Estimated
06:56AM 45.4477 15.4240 321° Northwest  Level Estimated
06:57AM 45.5299 15.3281 321° Northwest  Level Estimated
06:58AM 45.6121 15.2320 321° Northwest  Level Estimated
06:59AM 45.6941 15.1356 321° Northwest  Level Estimated
07:00AM 45.7761 15.0388 321° Northwest  Level Estimated
07:01AM 45.8580 14.9419 320° Northwest  Level Estimated
07:02AM 45.9398 14.8446 320° Northwest  Level Estimated
07:03AM 46.0216 14.7470 320° Northwest  Level Estimated
07:04AM 46.1032 14.6492 320° Northwest  Level Estimated
07:05AM 46.1848 14.5510 320° Northwest  Level Estimated
07:06AM 46.2663 14.4526 320° Northwest  Level Estimated
07:07AM 46.3477 14.3539 320° Northwest  Level Estimated
07:08AM 46.4290 14.2548 320° Northwest  Level Estimated
07:09AM 46.5102 14.1555 320° Northwest  Level Estimated
07:10AM 46.5914 14.0559 320° Northwest  Level Estimated
07:11AM 46.6601 13.9711 320° Northwest  Level Estimated
07:12AM 46.7289 13.8862 320° Northwest  Level Estimated
07:13AM 46.7975 13.8010 320° Northwest  Level Estimated
07:14AM 46.8661 13.7156 320° Northwest  Level Estimated
07:15AM 46.9347 13.6299 320° Northwest  Level Estimated
07:16AM 47.0031 13.5441 319° Northwest  Level Estimated
07:17AM 47.0715 13.4580 319° Northwest  Level Estimated
07:18AM 47.1398 13.3718 319° Northwest  Level Estimated
07:19AM 47.2081 13.2852 319° Northwest  Level Estimated
07:20AM 47.2763 13.1985 319° Northwest  Level Estimated
07:21AM 47.3445 13.1116 319° Northwest  Level Estimated
07:22AM 47.4125 13.0244 319° Northwest  Level Estimated
07:23AM 47.4805 12.9370 319° Northwest  Level Estimated
07:24AM 47.5485 12.8494 319° Northwest  Level Estimated
07:25AM 47.6163 12.7615 319° Northwest  Level Estimated
07:26AM 47.6842 12.6734 319° Northwest  Level Estimated
07:27AM 47.7519 12.5851 319° Northwest  Level Estimated
07:28AM 47.8196 12.4965 319° Northwest  Level Estimated
07:29AM 47.8872 12.4078 319° Northwest  Level Estimated
07:30AM 47.9547 12.3188 319° Northwest  Level Estimated
07:31AM 48.0222 12.2295 319° Northwest  Level Estimated
07:32AM 48.0896 12.1400 318° Northwest  Level Estimated
07:33AM 48.1569 12.0503 318° Northwest  Level Estimated
07:34AM 48.2242 11.9604 318° Northwest  Level Estimated
07:35AM 48.3033 11.8541 318° Northwest  Level Estimated
07:36AM 48.3538 11.7861 318° Northwest  Level Estimated
07:37AM 48.3538 11.7861 318° Northwest  Level Estimated
07:38AM 48.3538 11.7861 318° Northwest  Level Estimated
07:39AM 48.3538 11.7861 318° Northwest  Level Estimated
07:40AM 48.3538 11.7861 318° Northwest  Level Estimated
07:41AM 48.3538 11.7861 318° Northwest  Level Estimated
07:42AM 48.3538 11.7861 318° Northwest  Level Estimated
07:43AM 48.3538 11.7861 318° Northwest  Level Estimated
07:44AM 48.3538 11.7861 318° Northwest  Level Estimated
07:45AM 48.3538 11.7861 318° Northwest  Level Estimated
07:46AM 48.3538 11.7861 318° Northwest  Level Estimated
07:47AM 48.3538 11.7861 318° Northwest  Level Estimated
07:48AM 48.3538 11.7861 318° Northwest  Level Estimated